sensor_id;sensor_type;location;lat;lon;timestamp;pressure;altitude;pressure_sealevel;temperature;humidity
52653;BME280;39353;42.864;12.014;2023-11-19T00:01:34;98147.48;;;22.62;51.40
52653;BME280;39353;42.864;12.014;2023-11-19T00:04:01;98154.16;;;22.59;51.41
52653;BME280;39353;42.864;12.014;2023-11-19T00:06:28;98162.84;;;22.57;51.35
52653;BME280;39353;42.864;12.014;2023-11-19T00:08:55;98169.61;;;22.55;51.55
52653;BME280;39353;42.864;12.014;2023-11-19T00:11:22;98177.31;;;22.51;51.48
52653;BME280;39353;42.864;12.014;2023-11-19T00:13:48;98189.69;;;22.49;51.55
52653;BME280;39353;42.864;12.014;2023-11-19T00:16:15;98193.70;;;22.46;51.65
52653;BME280;39353;42.864;12.014;2023-11-19T00:18:42;98188.96;;;22.43;51.58
52653;BME280;39353;42.864;12.014;2023-11-19T00:21:09;98185.84;;;22.42;51.60
52653;BME280;39353;42.864;12.014;2023-11-19T00:23:37;98190.80;;;22.40;51.79
52653;BME280;39353;42.864;12.014;2023-11-19T00:26:04;98186.88;;;22.37;51.68
52653;BME280;39353;42.864;12.014;2023-11-19T00:28:33;98188.05;;;22.37;51.69
52653;BME280;39353;42.864;12.014;2023-11-19T00:31:01;98186.89;;;22.35;51.61
52653;BME280;39353;42.864;12.014;2023-11-19T00:33:29;98180.58;;;22.33;51.78
52653;BME280;39353;42.864;12.014;2023-11-19T00:35:57;98174.04;;;22.30;51.78
52653;BME280;39353;42.864;12.014;2023-11-19T00:38:25;98168.38;;;22.26;51.78
52653;BME280;39353;42.864;12.014;2023-11-19T00:40:52;98173.24;;;22.24;51.83
52653;BME280;39353;42.864;12.014;2023-11-19T00:43:18;98180.64;;;22.24;51.77
52653;BME280;39353;42.864;12.014;2023-11-19T00:45:48;98173.42;;;22.21;51.82
52653;BME280;39353;42.864;12.014;2023-11-19T00:48:17;98173.85;;;22.18;51.81
52653;BME280;39353;42.864;12.014;2023-11-19T00:50:44;98166.66;;;22.16;51.85
52653;BME280;39353;42.864;12.014;2023-11-19T00:53:12;98161.50;;;22.14;51.87
52653;BME280;39353;42.864;12.014;2023-11-19T00:55:39;98161.73;;;22.13;51.87
52653;BME280;39353;42.864;12.014;2023-11-19T00:58:05;98164.30;;;22.11;51.85
52653;BME280;39353;42.864;12.014;2023-11-19T01:00:32;98164.36;;;22.10;51.96
52653;BME280;39353;42.864;12.014;2023-11-19T01:03:00;98165.72;;;22.08;51.93
52653;BME280;39353;42.864;12.014;2023-11-19T01:05:26;98170.77;;;22.05;52.01
52653;BME280;39353;42.864;12.014;2023-11-19T01:07:55;98167.58;;;22.04;52.02
52653;BME280;39353;42.864;12.014;2023-11-19T01:10:22;98160.23;;;22.01;52.07
52653;BME280;39353;42.864;12.014;2023-11-19T01:12:49;98159.70;;;22.00;51.96
52653;BME280;39353;42.864;12.014;2023-11-19T01:15:16;98162.98;;;21.99;52.06
52653;BME280;39353;42.864;12.014;2023-11-19T01:17:45;98159.45;;;21.97;52.16
52653;BME280;39353;42.864;12.014;2023-11-19T01:20:12;98156.14;;;21.96;52.08
52653;BME280;39353;42.864;12.014;2023-11-19T01:22:40;98148.41;;;21.93;52.20
52653;BME280;39353;42.864;12.014;2023-11-19T01:25:07;98137.20;;;21.92;52.16
52653;BME280;39353;42.864;12.014;2023-11-19T01:27:34;98134.73;;;21.90;52.15
52653;BME280;39353;42.864;12.014;2023-11-19T01:30:04;98141.45;;;21.88;52.37
52653;BME280;39353;42.864;12.014;2023-11-19T01:32:32;98136.29;;;21.86;52.26
52653;BME280;39353;42.864;12.014;2023-11-19T01:34:59;98140.08;;;21.85;52.24
52653;BME280;39353;42.864;12.014;2023-11-19T01:37:25;98142.67;;;21.83;52.18
52653;BME280;39353;42.864;12.014;2023-11-19T01:39:52;98133.98;;;21.82;52.27
52653;BME280;39353;42.864;12.014;2023-11-19T01:42:19;98130.83;;;21.80;52.23
52653;BME280;39353;42.864;12.014;2023-11-19T01:44:58;98127.34;;;21.79;52.21
52653;BME280;39353;42.864;12.014;2023-11-19T01:47:26;98119.87;;;21.77;52.23
52653;BME280;39353;42.864;12.014;2023-11-19T01:49:56;98123.53;;;21.76;52.22
52653;BME280;39353;42.864;12.014;2023-11-19T01:52:25;98131.00;;;21.75;52.27
52653;BME280;39353;42.864;12.014;2023-11-19T01:54:54;98129.89;;;21.73;52.32
52653;BME280;39353;42.864;12.014;2023-11-19T01:57:22;98133.25;;;21.73;52.44
52653;BME280;39353;42.864;12.014;2023-11-19T01:59:52;98135.07;;;21.71;52.28
52653;BME280;39353;42.864;12.014;2023-11-19T02:02:19;98135.77;;;21.70;52.39
52653;BME280;39353;42.864;12.014;2023-11-19T02:04:51;98135.11;;;21.69;52.33
52653;BME280;39353;42.864;12.014;2023-11-19T02:07:19;98135.41;;;21.68;52.33
52653;BME280;39353;42.864;12.014;2023-11-19T02:09:46;98133.57;;;21.67;52.34
52653;BME280;39353;42.864;12.014;2023-11-19T02:12:14;98135.63;;;21.65;52.35
52653;BME280;39353;42.864;12.014;2023-11-19T02:14:41;98131.57;;;21.63;52.18
52653;BME280;39353;42.864;12.014;2023-11-19T02:17:31;98133.09;;;21.61;52.22
52653;BME280;39353;42.864;12.014;2023-11-19T02:19:58;98130.70;;;21.60;52.25
52653;BME280;39353;42.864;12.014;2023-11-19T02:22:27;98122.96;;;21.59;52.30
52653;BME280;39353;42.864;12.014;2023-11-19T02:25:00;98117.59;;;21.58;52.32
52653;BME280;39353;42.864;12.014;2023-11-19T02:30:12;98099.55;;;21.56;52.57
52653;BME280;39353;42.864;12.014;2023-11-19T02:32:42;98092.63;;;21.54;52.33
52653;BME280;39353;42.864;12.014;2023-11-19T02:35:09;98095.32;;;21.53;52.39
52653;BME280;39353;42.864;12.014;2023-11-19T02:37:35;98104.35;;;21.53;52.35
52653;BME280;39353;42.864;12.014;2023-11-19T02:40:03;98102.16;;;21.51;52.52
52653;BME280;39353;42.864;12.014;2023-11-19T02:42:31;98095.79;;;21.50;52.45
52653;BME280;39353;42.864;12.014;2023-11-19T02:44:58;98099.31;;;21.48;52.31
52653;BME280;39353;42.864;12.014;2023-11-19T02:47:25;98098.82;;;21.47;52.44
52653;BME280;39353;42.864;12.014;2023-11-19T02:49:52;98092.95;;;21.46;52.52
52653;BME280;39353;42.864;12.014;2023-11-19T02:52:19;98089.92;;;21.45;52.61
52653;BME280;39353;42.864;12.014;2023-11-19T02:54:46;98086.20;;;21.45;52.65
52653;BME280;39353;42.864;12.014;2023-11-19T02:57:13;98085.11;;;21.43;52.69
52653;BME280;39353;42.864;12.014;2023-11-19T02:59:40;98081.63;;;21.42;52.61
52653;BME280;39353;42.864;12.014;2023-11-19T03:02:10;98077.00;;;21.41;52.51
52653;BME280;39353;42.864;12.014;2023-11-19T03:04:38;98075.50;;;21.40;52.59
52653;BME280;39353;42.864;12.014;2023-11-19T03:07:06;98080.55;;;21.39;52.52
52653;BME280;39353;42.864;12.014;2023-11-19T03:09:34;98092.38;;;21.38;52.69
52653;BME280;39353;42.864;12.014;2023-11-19T03:12:07;98094.81;;;21.37;52.54
52653;BME280;39353;42.864;12.014;2023-11-19T03:14:33;98094.52;;;21.37;52.53
52653;BME280;39353;42.864;12.014;2023-11-19T03:17:01;98092.56;;;21.37;52.52
52653;BME280;39353;42.864;12.014;2023-11-19T03:19:28;98091.89;;;21.36;52.54
52653;BME280;39353;42.864;12.014;2023-11-19T03:21:55;98091.47;;;21.35;52.55
52653;BME280;39353;42.864;12.014;2023-11-19T03:24:22;98094.45;;;21.35;52.51
52653;BME280;39353;42.864;12.014;2023-11-19T03:26:49;98096.21;;;21.34;52.72
52653;BME280;39353;42.864;12.014;2023-11-19T03:29:18;98093.83;;;21.33;52.50
52653;BME280;39353;42.864;12.014;2023-11-19T03:31:46;98090.72;;;21.33;52.52
52653;BME280;39353;42.864;12.014;2023-11-19T03:34:12;98084.97;;;21.33;52.54
52653;BME280;39353;42.864;12.014;2023-11-19T03:36:39;98078.05;;;21.31;52.67
52653;BME280;39353;42.864;12.014;2023-11-19T03:39:06;98076.30;;;21.30;52.59
52653;BME280;39353;42.864;12.014;2023-11-19T03:41:33;98067.02;;;21.28;52.59
52653;BME280;39353;42.864;12.014;2023-11-19T03:44:00;98062.95;;;21.27;52.64
52653;BME280;39353;42.864;12.014;2023-11-19T03:46:27;98049.63;;;21.26;52.51
52653;BME280;39353;42.864;12.014;2023-11-19T03:48:54;98049.02;;;21.25;52.63
52653;BME280;39353;42.864;12.014;2023-11-19T03:51:21;98050.02;;;21.24;52.72
52653;BME280;39353;42.864;12.014;2023-11-19T03:53:48;98048.59;;;21.24;52.70
52653;BME280;39353;42.864;12.014;2023-11-19T03:56:15;98049.02;;;21.24;52.63
52653;BME280;39353;42.864;12.014;2023-11-19T03:58:43;98044.52;;;21.23;52.74
52653;BME280;39353;42.864;12.014;2023-11-19T04:01:13;98043.34;;;21.23;52.55
52653;BME280;39353;42.864;12.014;2023-11-19T04:03:41;98039.14;;;21.22;52.69
52653;BME280;39353;42.864;12.014;2023-11-19T04:06:08;98035.09;;;21.21;52.73
52653;BME280;39353;42.864;12.014;2023-11-19T04:08:36;98036.46;;;21.20;52.70
52653;BME280;39353;42.864;12.014;2023-11-19T04:11:04;98043.73;;;21.20;52.69
52653;BME280;39353;42.864;12.014;2023-11-19T04:13:30;98049.96;;;21.18;52.77
52653;BME280;39353;42.864;12.014;2023-11-19T04:15:57;98041.69;;;21.18;52.61
52653;BME280;39353;42.864;12.014;2023-11-19T04:18:24;98045.55;;;21.17;52.80
52653;BME280;39353;42.864;12.014;2023-11-19T04:20:51;98045.30;;;21.17;52.76
52653;BME280;39353;42.864;12.014;2023-11-19T04:23:18;98043.46;;;21.16;52.81
52653;BME280;39353;42.864;12.014;2023-11-19T04:25:44;98044.30;;;21.15;52.80
52653;BME280;39353;42.864;12.014;2023-11-19T04:28:11;98039.61;;;21.15;52.71
52653;BME280;39353;42.864;12.014;2023-11-19T04:30:38;98036.58;;;21.14;52.87
52653;BME280;39353;42.864;12.014;2023-11-19T04:33:05;98035.29;;;21.12;52.74
52653;BME280;39353;42.864;12.014;2023-11-19T04:35:32;98033.98;;;21.12;52.71
52653;BME280;39353;42.864;12.014;2023-11-19T04:37:59;98031.00;;;21.11;52.63
52653;BME280;39353;42.864;12.014;2023-11-19T04:40:26;98030.05;;;21.10;52.79
52653;BME280;39353;42.864;12.014;2023-11-19T04:42:52;98031.14;;;21.08;52.80
52653;BME280;39353;42.864;12.014;2023-11-19T04:45:19;98033.27;;;21.09;52.74
52653;BME280;39353;42.864;12.014;2023-11-19T04:47:46;98039.73;;;21.08;52.84
52653;BME280;39353;42.864;12.014;2023-11-19T04:50:13;98041.96;;;21.08;52.96
52653;BME280;39353;42.864;12.014;2023-11-19T04:52:40;98044.44;;;21.07;52.74
52653;BME280;39353;42.864;12.014;2023-11-19T04:55:07;98049.44;;;21.07;52.72
52653;BME280;39353;42.864;12.014;2023-11-19T04:57:38;98048.96;;;21.06;52.86
52653;BME280;39353;42.864;12.014;2023-11-19T05:00:05;98047.91;;;21.05;52.87
52653;BME280;39353;42.864;12.014;2023-11-19T05:02:34;98046.15;;;21.04;52.74
52653;BME280;39353;42.864;12.014;2023-11-19T05:05:01;98044.89;;;21.04;52.78
52653;BME280;39353;42.864;12.014;2023-11-19T05:07:30;98043.63;;;21.04;52.99
52653;BME280;39353;42.864;12.014;2023-11-19T05:09:57;98045.77;;;21.03;52.95
52653;BME280;39353;42.864;12.014;2023-11-19T05:12:24;98041.08;;;21.02;52.80
52653;BME280;39353;42.864;12.014;2023-11-19T05:14:51;98039.39;;;21.02;52.87
52653;BME280;39353;42.864;12.014;2023-11-19T05:17:19;98041.40;;;21.02;52.82
52653;BME280;39353;42.864;12.014;2023-11-19T05:19:46;98037.34;;;21.01;52.86
52653;BME280;39353;42.864;12.014;2023-11-19T05:22:12;98033.10;;;21.00;52.98
52653;BME280;39353;42.864;12.014;2023-11-19T05:24:39;98032.17;;;21.00;52.92
52653;BME280;39353;42.864;12.014;2023-11-19T05:27:07;98034.73;;;21.00;52.89
52653;BME280;39353;42.864;12.014;2023-11-19T05:29:34;98038.17;;;20.98;52.79
52653;BME280;39353;42.864;12.014;2023-11-19T05:32:01;98039.09;;;20.98;52.98
52653;BME280;39353;42.864;12.014;2023-11-19T05:34:28;98034.48;;;20.97;53.00
52653;BME280;39353;42.864;12.014;2023-11-19T05:36:55;98031.67;;;20.96;52.92
52653;BME280;39353;42.864;12.014;2023-11-19T05:39:22;98031.13;;;20.95;52.84
52653;BME280;39353;42.864;12.014;2023-11-19T05:41:48;98035.66;;;20.94;53.05
52653;BME280;39353;42.864;12.014;2023-11-19T05:44:15;98040.70;;;20.93;52.84
52653;BME280;39353;42.864;12.014;2023-11-19T05:46:42;98043.85;;;20.93;52.97
52653;BME280;39353;42.864;12.014;2023-11-19T05:49:10;98042.55;;;20.91;52.84
52653;BME280;39353;42.864;12.014;2023-11-19T05:51:38;98041.85;;;20.92;52.93
52653;BME280;39353;42.864;12.014;2023-11-19T05:54:09;98034.42;;;20.91;52.81
52653;BME280;39353;42.864;12.014;2023-11-19T05:56:37;98032.58;;;20.90;52.85
52653;BME280;39353;42.864;12.014;2023-11-19T05:59:04;98032.83;;;20.91;52.88
52653;BME280;39353;42.864;12.014;2023-11-19T06:01:34;98032.98;;;20.91;52.80
52653;BME280;39353;42.864;12.014;2023-11-19T06:04:01;98037.69;;;20.90;52.85
52653;BME280;39353;42.864;12.014;2023-11-19T06:06:28;98041.73;;;20.90;52.90
52653;BME280;39353;42.864;12.014;2023-11-19T06:08:55;98035.02;;;20.90;52.87
52653;BME280;39353;42.864;12.014;2023-11-19T06:11:22;98028.13;;;20.88;52.89
52653;BME280;39353;42.864;12.014;2023-11-19T06:13:49;98029.71;;;20.87;52.94
52653;BME280;39353;42.864;12.014;2023-11-19T06:16:17;98026.16;;;20.87;52.85
52653;BME280;39353;42.864;12.014;2023-11-19T06:18:44;98021.51;;;20.86;52.87
52653;BME280;39353;42.864;12.014;2023-11-19T06:21:12;98016.63;;;20.86;52.95
52653;BME280;39353;42.864;12.014;2023-11-19T06:23:39;98020.88;;;20.86;52.98
52653;BME280;39353;42.864;12.014;2023-11-19T06:26:06;98025.74;;;20.85;52.85
52653;BME280;39353;42.864;12.014;2023-11-19T06:28:33;98030.61;;;20.83;52.93
52653;BME280;39353;42.864;12.014;2023-11-19T06:30:59;98032.58;;;20.82;52.95
52653;BME280;39353;42.864;12.014;2023-11-19T06:33:27;98038.83;;;20.82;52.92
52653;BME280;39353;42.864;12.014;2023-11-19T06:35:54;98041.27;;;20.81;52.88
52653;BME280;39353;42.864;12.014;2023-11-19T06:38:21;98043.16;;;20.80;52.93
52653;BME280;39353;42.864;12.014;2023-11-19T06:40:47;98038.66;;;20.80;52.97
52653;BME280;39353;42.864;12.014;2023-11-19T06:43:14;98040.43;;;20.81;52.96
52653;BME280;39353;42.864;12.014;2023-11-19T06:45:41;98040.52;;;20.83;53.05
52653;BME280;39353;42.864;12.014;2023-11-19T06:48:08;98046.30;;;20.84;53.10
52653;BME280;39353;42.864;12.014;2023-11-19T06:50:35;98051.77;;;20.84;53.05
52653;BME280;39353;42.864;12.014;2023-11-19T06:53:02;98052.10;;;20.83;52.75
52653;BME280;39353;42.864;12.014;2023-11-19T06:55:28;98056.45;;;20.83;52.95
52653;BME280;39353;42.864;12.014;2023-11-19T06:57:55;98050.03;;;20.82;52.75
52653;BME280;39353;42.864;12.014;2023-11-19T07:00:22;98048.83;;;20.82;52.73
52653;BME280;39353;42.864;12.014;2023-11-19T07:02:48;98039.04;;;20.81;52.85
52653;BME280;39353;42.864;12.014;2023-11-19T07:05:16;98034.27;;;20.81;52.72
52653;BME280;39353;42.864;12.014;2023-11-19T07:07:43;98034.69;;;20.80;52.61
52653;BME280;39353;42.864;12.014;2023-11-19T07:10:09;98037.28;;;20.81;52.77
52653;BME280;39353;42.864;12.014;2023-11-19T07:12:36;98040.05;;;20.82;52.81
52653;BME280;39353;42.864;12.014;2023-11-19T07:15:03;98032.96;;;20.82;52.96
52653;BME280;39353;42.864;12.014;2023-11-19T07:17:31;98036.69;;;20.83;52.80
52653;BME280;39353;42.864;12.014;2023-11-19T07:19:57;98030.45;;;20.83;53.11
52653;BME280;39353;42.864;12.014;2023-11-19T07:22:26;98030.95;;;20.83;53.07
52653;BME280;39353;42.864;12.014;2023-11-19T07:24:53;98026.16;;;20.82;53.24
52653;BME280;39353;42.864;12.014;2023-11-19T07:27:20;98021.42;;;20.82;53.40
52653;BME280;39353;42.864;12.014;2023-11-19T07:29:46;98022.30;;;20.83;53.67
52653;BME280;39353;42.864;12.014;2023-11-19T07:32:14;98025.32;;;20.83;53.71
52653;BME280;39353;42.864;12.014;2023-11-19T07:34:41;98027.43;;;20.82;53.90
52653;BME280;39353;42.864;12.014;2023-11-19T07:37:07;98034.77;;;20.83;53.68
52653;BME280;39353;42.864;12.014;2023-11-19T07:39:34;98036.19;;;20.84;53.83
52653;BME280;39353;42.864;12.014;2023-11-19T07:42:03;98043.32;;;20.83;53.39
52653;BME280;39353;42.864;12.014;2023-11-19T07:44:30;98042.86;;;20.83;53.36
52653;BME280;39353;42.864;12.014;2023-11-19T07:46:57;98041.01;;;20.83;53.25
52653;BME280;39353;42.864;12.014;2023-11-19T07:49:24;98043.57;;;20.83;53.22
52653;BME280;39353;42.864;12.014;2023-11-19T07:51:51;98044.46;;;20.83;53.09
52653;BME280;39353;42.864;12.014;2023-11-19T07:54:19;98050.75;;;20.84;53.40
52653;BME280;39353;42.864;12.014;2023-11-19T07:56:48;98046.93;;;20.85;53.28
52653;BME280;39353;42.864;12.014;2023-11-19T07:59:16;98041.18;;;20.86;53.21
52653;BME280;39353;42.864;12.014;2023-11-19T08:01:43;98037.23;;;20.86;53.33
52653;BME280;39353;42.864;12.014;2023-11-19T08:04:10;98037.77;;;20.85;53.21
52653;BME280;39353;42.864;12.014;2023-11-19T08:06:37;98041.60;;;20.85;53.19
52653;BME280;39353;42.864;12.014;2023-11-19T08:09:04;98037.20;;;20.84;52.35
52653;BME280;39353;42.864;12.014;2023-11-19T08:11:32;98037.58;;;20.83;52.06
52653;BME280;39353;42.864;12.014;2023-11-19T08:14:00;98039.96;;;20.83;52.37
52653;BME280;39353;42.864;12.014;2023-11-19T08:16:26;98037.41;;;20.83;51.76
52653;BME280;39353;42.864;12.014;2023-11-19T08:18:53;98040.27;;;20.76;50.31
52653;BME280;39353;42.864;12.014;2023-11-19T08:21:20;98040.09;;;20.74;51.09
52653;BME280;39353;42.864;12.014;2023-11-19T08:23:49;98045.27;;;20.76;51.28
52653;BME280;39353;42.864;12.014;2023-11-19T08:26:16;98053.58;;;20.76;51.42
52653;BME280;39353;42.864;12.014;2023-11-19T08:28:42;98056.06;;;20.77;51.30
52653;BME280;39353;42.864;12.014;2023-11-19T08:31:09;98063.91;;;20.77;51.52
52653;BME280;39353;42.864;12.014;2023-11-19T08:33:36;98073.72;;;20.77;51.67
52653;BME280;39353;42.864;12.014;2023-11-19T08:36:04;98077.04;;;20.78;51.92
52653;BME280;39353;42.864;12.014;2023-11-19T08:38:31;98078.88;;;20.79;51.88
52653;BME280;39353;42.864;12.014;2023-11-19T08:40:58;98077.20;;;20.78;51.96
52653;BME280;39353;42.864;12.014;2023-11-19T08:43:27;98077.92;;;20.78;51.73
52653;BME280;39353;42.864;12.014;2023-11-19T08:45:54;98071.45;;;20.76;51.68
52653;BME280;39353;42.864;12.014;2023-11-19T08:48:21;98075.39;;;20.76;51.80
52653;BME280;39353;42.864;12.014;2023-11-19T08:50:47;98080.47;;;20.76;52.09
52653;BME280;39353;42.864;12.014;2023-11-19T08:53:15;98080.40;;;20.75;51.86
52653;BME280;39353;42.864;12.014;2023-11-19T08:55:42;98076.16;;;20.74;51.62
52653;BME280;39353;42.864;12.014;2023-11-19T08:58:08;98073.73;;;20.75;51.54
52653;BME280;39353;42.864;12.014;2023-11-19T09:00:35;98078.42;;;20.74;51.21
52653;BME280;39353;42.864;12.014;2023-11-19T09:03:02;98078.19;;;20.73;51.30
52653;BME280;39353;42.864;12.014;2023-11-19T09:05:29;98079.44;;;20.75;51.63
52653;BME280;39353;42.864;12.014;2023-11-19T09:07:56;98081.98;;;20.77;51.39
52653;BME280;39353;42.864;12.014;2023-11-19T09:10:23;98084.46;;;20.79;51.33
52653;BME280;39353;42.864;12.014;2023-11-19T09:12:50;98087.83;;;20.79;50.74
52653;BME280;39353;42.864;12.014;2023-11-19T09:15:16;98088.52;;;20.79;50.46
52653;BME280;39353;42.864;12.014;2023-11-19T09:17:43;98089.91;;;20.79;50.66
52653;BME280;39353;42.864;12.014;2023-11-19T09:20:11;98087.55;;;20.80;50.96
52653;BME280;39353;42.864;12.014;2023-11-19T09:22:41;98088.21;;;20.82;50.97
52653;BME280;39353;42.864;12.014;2023-11-19T09:25:08;98088.34;;;20.82;50.53
52653;BME280;39353;42.864;12.014;2023-11-19T09:27:36;98090.83;;;20.80;49.38
52653;BME280;39353;42.864;12.014;2023-11-19T09:30:04;98085.95;;;20.80;49.46
52653;BME280;39353;42.864;12.014;2023-11-19T09:32:31;98081.88;;;20.70;46.92
52653;BME280;39353;42.864;12.014;2023-11-19T09:34:58;98082.09;;;20.67;48.74
52653;BME280;39353;42.864;12.014;2023-11-19T09:37:24;98079.23;;;20.66;48.89
52653;BME280;39353;42.864;12.014;2023-11-19T09:39:51;98075.87;;;20.68;49.43
52653;BME280;39353;42.864;12.014;2023-11-19T09:42:19;98080.74;;;20.71;49.36
52653;BME280;39353;42.864;12.014;2023-11-19T09:44:47;98072.90;;;20.67;48.37
52653;BME280;39353;42.864;12.014;2023-11-19T09:47:19;98075.63;;;20.66;47.88
52653;BME280;39353;42.864;12.014;2023-11-19T09:49:48;98072.28;;;20.64;48.42
52653;BME280;39353;42.864;12.014;2023-11-19T09:52:16;98070.92;;;20.66;48.49
52653;BME280;39353;42.864;12.014;2023-11-19T09:54:43;98074.36;;;20.69;48.45
52653;BME280;39353;42.864;12.014;2023-11-19T09:57:14;98077.34;;;20.71;48.72
52653;BME280;39353;42.864;12.014;2023-11-19T09:59:45;98068.62;;;20.71;48.56
52653;BME280;39353;42.864;12.014;2023-11-19T10:02:14;98064.13;;;20.70;48.65
52653;BME280;39353;42.864;12.014;2023-11-19T10:04:42;98066.43;;;20.67;48.58
52653;BME280;39353;42.864;12.014;2023-11-19T10:07:10;98060.60;;;20.67;48.67
52653;BME280;39353;42.864;12.014;2023-11-19T10:09:37;98059.55;;;20.66;47.64
52653;BME280;39353;42.864;12.014;2023-11-19T10:12:04;98054.99;;;20.58;43.92
52653;BME280;39353;42.864;12.014;2023-11-19T10:14:31;98050.73;;;20.37;40.16
52653;BME280;39353;42.864;12.014;2023-11-19T10:17:03;98048.75;;;20.25;42.92
52653;BME280;39353;42.864;12.014;2023-11-19T10:19:31;98047.86;;;20.26;45.19
52653;BME280;39353;42.864;12.014;2023-11-19T10:22:03;98051.80;;;20.29;45.70
52653;BME280;39353;42.864;12.014;2023-11-19T10:24:34;98047.23;;;20.34;46.46
52653;BME280;39353;42.864;12.014;2023-11-19T10:27:01;98045.39;;;20.36;46.15
52653;BME280;39353;42.864;12.014;2023-11-19T10:29:29;98042.25;;;20.36;46.25
52653;BME280;39353;42.864;12.014;2023-11-19T10:31:57;98037.85;;;20.39;47.09
52653;BME280;39353;42.864;12.014;2023-11-19T10:34:26;98037.69;;;20.41;46.95
52653;BME280;39353;42.864;12.014;2023-11-19T10:36:53;98030.80;;;20.42;46.59
52653;BME280;39353;42.864;12.014;2023-11-19T10:39:20;98025.43;;;20.43;47.11
52653;BME280;39353;42.864;12.014;2023-11-19T10:41:47;98027.77;;;20.43;46.78
52653;BME280;39353;42.864;12.014;2023-11-19T10:44:33;98021.23;;;20.41;47.45
52653;BME280;39353;42.864;12.014;2023-11-19T10:47:05;98018.61;;;20.42;47.76
52653;BME280;39353;42.864;12.014;2023-11-19T10:49:35;98018.73;;;20.43;47.48
52653;BME280;39353;42.864;12.014;2023-11-19T10:52:02;98014.02;;;20.42;47.71
52653;BME280;39353;42.864;12.014;2023-11-19T10:54:32;98011.89;;;20.42;47.88
52653;BME280;39353;42.864;12.014;2023-11-19T10:57:02;98008.66;;;20.42;47.81
52653;BME280;39353;42.864;12.014;2023-11-19T10:59:31;98003.38;;;20.42;47.93
52653;BME280;39353;42.864;12.014;2023-11-19T11:02:03;98000.18;;;20.41;48.12
52653;BME280;39353;42.864;12.014;2023-11-19T11:04:39;97996.33;;;20.41;48.19
52653;BME280;39353;42.864;12.014;2023-11-19T11:07:08;97996.24;;;20.41;48.09
52653;BME280;39353;42.864;12.014;2023-11-19T11:09:36;98001.11;;;20.41;48.06
52653;BME280;39353;42.864;12.014;2023-11-19T11:12:04;98000.31;;;20.42;48.34
52653;BME280;39353;42.864;12.014;2023-11-19T11:14:34;98000.06;;;20.41;48.30
52653;BME280;39353;42.864;12.014;2023-11-19T11:17:04;97992.98;;;20.41;48.63
52653;BME280;39353;42.864;12.014;2023-11-19T11:19:35;97986.44;;;20.41;48.30
52653;BME280;39353;42.864;12.014;2023-11-19T11:22:05;97986.31;;;20.42;48.51
52653;BME280;39353;42.864;12.014;2023-11-19T11:25:03;97982.88;;;20.33;44.38
52653;BME280;39353;42.864;12.014;2023-11-19T11:30:31;97980.83;;;20.17;45.36
52653;BME280;39353;42.864;12.014;2023-11-19T11:36:00;97981.55;;;20.20;47.35
52653;BME280;39353;42.864;12.014;2023-11-19T11:38:36;97970.79;;;20.22;46.93
52653;BME280;39353;42.864;12.014;2023-11-19T11:43:50;97961.54;;;20.31;48.50
52653;BME280;39353;42.864;12.014;2023-11-19T11:49:01;97961.32;;;20.40;50.09
52653;BME280;39353;42.864;12.014;2023-11-19T11:57:06;97958.83;;;20.53;52.01
52653;BME280;39353;42.864;12.014;2023-11-19T11:59:45;97958.40;;;20.57;52.93
52653;BME280;39353;42.864;12.014;2023-11-19T12:02:16;97959.65;;;20.61;54.15
52653;BME280;39353;42.864;12.014;2023-11-19T12:04:48;97955.37;;;20.66;54.39
52653;BME280;39353;42.864;12.014;2023-11-19T12:07:18;97953.09;;;20.69;54.96
52653;BME280;39353;42.864;12.014;2023-11-19T12:10:05;97955.30;;;20.72;55.80
52653;BME280;39353;42.864;12.014;2023-11-19T12:12:34;97951.40;;;20.74;56.52
52653;BME280;39353;42.864;12.014;2023-11-19T12:15:04;97948.79;;;20.74;56.77
52653;BME280;39353;42.864;12.014;2023-11-19T12:20:05;97947.41;;;20.75;57.23
52653;BME280;39353;42.864;12.014;2023-11-19T12:22:37;97943.09;;;20.76;57.08
52653;BME280;39353;42.864;12.014;2023-11-19T12:25:07;97939.65;;;20.76;56.82
52653;BME280;39353;42.864;12.014;2023-11-19T12:27:55;97933.35;;;20.75;56.48
52653;BME280;39353;42.864;12.014;2023-11-19T12:30:23;97935.61;;;20.74;56.57
52653;BME280;39353;42.864;12.014;2023-11-19T12:32:53;97939.52;;;20.73;56.22
52653;BME280;39353;42.864;12.014;2023-11-19T12:35:21;97933.31;;;20.73;56.30
52653;BME280;39353;42.864;12.014;2023-11-19T12:37:50;97925.27;;;20.73;55.97
52653;BME280;39353;42.864;12.014;2023-11-19T12:40:20;97919.27;;;20.72;55.94
52653;BME280;39353;42.864;12.014;2023-11-19T12:42:51;97914.20;;;20.71;55.55
52653;BME280;39353;42.864;12.014;2023-11-19T12:45:20;97912.21;;;20.70;55.17
52653;BME280;39353;42.864;12.014;2023-11-19T12:47:48;97908.23;;;20.70;55.00
52653;BME280;39353;42.864;12.014;2023-11-19T12:50:17;97910.25;;;20.68;54.79
52653;BME280;39353;42.864;12.014;2023-11-19T12:52:57;97912.18;;;20.68;54.19
52653;BME280;39353;42.864;12.014;2023-11-19T12:55:29;97908.95;;;20.67;54.14
52653;BME280;39353;42.864;12.014;2023-11-19T12:57:57;97907.23;;;20.66;53.91
52653;BME280;39353;42.864;12.014;2023-11-19T13:00:26;97897.92;;;20.65;53.79
52653;BME280;39353;42.864;12.014;2023-11-19T13:02:55;97898.02;;;20.65;53.43
52653;BME280;39353;42.864;12.014;2023-11-19T13:05:30;97900.08;;;20.64;53.28
52653;BME280;39353;42.864;12.014;2023-11-19T13:08:02;97901.04;;;20.64;52.92
52653;BME280;39353;42.864;12.014;2023-11-19T13:10:50;97900.13;;;20.63;52.50
52653;BME280;39353;42.864;12.014;2023-11-19T13:13:17;97895.63;;;20.62;52.29
52653;BME280;39353;42.864;12.014;2023-11-19T13:15:45;97894.34;;;20.61;52.20
52653;BME280;39353;42.864;12.014;2023-11-19T13:18:13;97902.55;;;20.62;51.96